createdAt,value
2023-01-02T00:01:12.898Z,11.34
2023-01-02T00:06:17.782Z,11.43
2023-01-02T00:11:20.573Z,11.51
2023-01-02T00:16:24.961Z,11.63
2023-01-02T00:21:29.809Z,11.65
2023-01-02T00:26:32.622Z,11.78
2023-01-02T00:31:36.742Z,11.72
2023-01-02T00:36:39.498Z,11.95
2023-01-02T00:41:42.241Z,11.87
2023-01-02T00:46:46.378Z,11.75
2023-01-02T00:51:49.228Z,11.79
2023-01-02T00:56:51.940Z,11.80
2023-01-02T01:01:56.149Z,12.00
2023-01-02T01:06:58.945Z,12.06
2023-01-02T01:12:04.861Z,12.20
2023-01-02T01:17:09.394Z,12.06
2023-01-02T01:22:12.115Z,12.01
2023-01-02T01:27:14.840Z,11.97
2023-01-02T01:32:18.905Z,12.08
2023-01-02T01:37:21.698Z,11.87
2023-01-02T01:42:24.411Z,11.81
2023-01-02T01:47:37.013Z,11.90
2023-01-02T01:52:42.165Z,11.93
2023-01-02T01:57:46.414Z,11.75
2023-01-02T02:02:53.064Z,11.65
2023-01-02T02:08:01.356Z,11.54
2023-01-02T02:13:04.067Z,11.54
2023-01-02T02:18:18.031Z,11.58
2023-01-02T02:23:37.894Z,11.59
2023-01-02T02:28:55.528Z,11.65
2023-01-02T02:34:01.354Z,12.11
2023-01-02T02:39:10.955Z,11.93
2023-01-02T02:44:24.375Z,12.06
2023-01-02T02:49:37.919Z,12.10
2023-01-02T02:54:43.661Z,11.92
2023-01-02T02:59:46.438Z,11.91
2023-01-02T03:04:54.184Z,11.89
2023-01-02T03:10:03.755Z,11.81
2023-01-02T03:15:13.257Z,11.78
2023-01-02T03:20:20.281Z,11.78
2023-01-02T03:25:23.229Z,11.84
2023-01-02T03:30:26.001Z,11.93
2023-01-02T03:35:34.197Z,11.80
2023-01-02T03:40:40.283Z,11.82
2023-01-02T03:45:47.021Z,11.72
2023-01-02T03:50:52.698Z,11.83
2023-01-02T03:56:02.354Z,11.71
2023-01-02T04:01:08.088Z,11.81
2023-01-02T04:06:14.917Z,11.91
2023-01-02T04:11:20.309Z,11.89
2023-01-02T04:16:24.620Z,11.98
2023-01-02T04:21:31.475Z,11.88
2023-01-02T04:26:37.733Z,11.70
2023-01-02T04:31:45.624Z,11.69
2023-01-02T04:36:50.413Z,11.69
2023-01-02T04:41:53.131Z,11.76
2023-01-02T04:46:55.817Z,11.72
2023-01-02T04:51:59.894Z,11.78
2023-01-02T04:57:02.619Z,11.84
2023-01-02T05:02:05.914Z,11.77
2023-01-02T05:07:10.093Z,11.83
2023-01-02T05:12:12.803Z,11.80
2023-01-02T05:17:15.522Z,11.81
2023-01-02T05:22:36.975Z,11.78
2023-01-02T05:27:40.983Z,11.97
2023-01-02T05:32:43.697Z,12.02
2023-01-02T05:37:48.227Z,11.82
2023-01-02T05:42:50.999Z,11.88
2023-01-02T05:47:53.720Z,11.83
2023-01-02T05:52:57.936Z,12.02
2023-01-02T05:58:02.353Z,11.91
2023-01-02T06:03:05.337Z,12.01
2023-01-02T06:08:09.408Z,12.06
2023-01-02T06:13:12.090Z,12.11
2023-01-02T06:18:14.768Z,11.92
2023-01-02T06:23:18.812Z,11.87
2023-01-02T06:28:21.790Z,11.83
2023-01-02T06:33:24.492Z,11.79
2023-01-02T06:38:28.812Z,11.92
2023-01-02T06:43:32.090Z,11.76
2023-01-02T06:48:35.422Z,11.66
2023-01-02T06:53:40.953Z,11.68
2023-01-02T06:58:43.651Z,11.70
2023-01-02T07:03:46.594Z,11.77
2023-01-02T07:08:50.730Z,11.55
2023-01-02T07:13:55.005Z,11.68
2023-01-02T07:18:57.759Z,11.80
2023-01-02T07:24:01.822Z,11.68
2023-01-02T07:29:04.537Z,11.75
2023-01-02T07:34:07.233Z,11.76
2023-01-02T07:39:11.291Z,11.72
2023-01-02T07:44:13.980Z,11.75
2023-01-02T07:49:16.696Z,11.57
2023-01-02T07:54:20.745Z,11.51
2023-01-02T07:59:23.437Z,11.57
2023-01-02T08:04:26.151Z,11.70
2023-01-02T08:09:30.221Z,11.55
2023-01-02T08:14:32.935Z,11.64
2023-01-02T08:19:35.626Z,11.88
2023-01-02T08:24:39.660Z,11.84
2023-01-02T08:29:42.556Z,11.89
2023-01-02T08:34:45.248Z,11.83
2023-01-02T08:39:49.313Z,12.01
2023-01-02T08:44:52.056Z,12.01
2023-01-02T08:49:54.733Z,11.93
2023-01-02T08:55:00.737Z,11.95
2023-01-02T09:00:04.101Z,11.95
2023-01-02T09:05:07.314Z,11.85
2023-01-02T09:10:12.163Z,11.88
2023-01-02T09:15:14.851Z,11.94
2023-01-02T09:20:17.694Z,12.18
2023-01-02T09:25:24.425Z,12.10
2023-01-02T09:30:27.355Z,11.86
2023-01-02T09:35:30.020Z,11.74
2023-01-02T09:40:35.299Z,11.62
2023-01-02T09:45:39.762Z,11.49
2023-01-02T09:50:42.421Z,11.35
2023-01-02T09:55:48.647Z,11.36
2023-01-02T10:00:51.949Z,11.42
2023-01-02T10:06:09.484Z,11.32
2023-01-02T10:11:25.651Z,11.38
2023-01-02T10:16:31.463Z,11.35
2023-01-02T10:21:36.053Z,11.39
2023-01-02T10:26:43.991Z,11.37
2023-01-02T10:31:49.755Z,11.38
2023-01-02T10:36:52.925Z,11.35
2023-01-02T10:41:58.633Z,11.29
2023-01-02T10:47:12.526Z,11.21
2023-01-02T10:52:20.764Z,11.09
2023-01-02T10:57:27.908Z,10.91
2023-01-02T11:02:33.349Z,10.93
2023-01-02T11:07:37.871Z,10.83
2023-01-02T11:12:49.232Z,10.78
2023-01-02T11:17:52.220Z,10.67
2023-01-02T11:22:56.848Z,10.65
2023-01-02T11:28:01.513Z,10.61
2023-01-02T11:33:09.672Z,10.59
2023-01-02T11:38:21.633Z,10.59
2023-01-02T11:43:51.972Z,10.55
2023-01-02T11:48:59.146Z,10.59
2023-01-02T11:54:04.734Z,10.60
2023-01-02T11:59:14.835Z,10.50
2023-01-02T12:04:17.578Z,10.49
2023-01-02T12:09:25.260Z,10.41
2023-01-02T12:14:44.544Z,10.38
2023-01-02T12:20:05.675Z,10.43
2023-01-02T12:25:35.472Z,10.46
2023-01-02T12:30:46.166Z,10.45
2023-01-02T12:36:16.319Z,10.37
2023-01-02T12:41:26.255Z,10.50
2023-01-02T12:46:40.813Z,10.51
2023-01-02T12:51:49.059Z,10.48
2023-01-02T12:57:00.243Z,10.56
2023-01-02T13:02:07.513Z,10.48
2023-01-02T13:07:14.957Z,10.47
2023-01-02T13:12:19.493Z,10.46
2023-01-02T13:17:38.179Z,10.40
2023-01-02T13:22:47.739Z,10.39
2023-01-02T13:27:56.083Z,10.31
2023-01-02T13:33:00.368Z,10.24
2023-01-02T13:38:04.418Z,10.16
2023-01-02T13:43:13.278Z,10.16
2023-01-02T13:48:23.685Z,10.08
2023-01-02T13:53:31.793Z,10.01
2023-01-02T13:58:43.436Z,9.96
2023-01-02T14:03:47.827Z,9.99
2023-01-02T14:09:09.373Z,9.90
2023-01-02T14:14:14.110Z,9.88
2023-01-02T14:19:21.015Z,9.83
2023-01-02T14:24:29.565Z,9.83
2023-01-02T14:29:40.424Z,9.85
2023-01-02T14:34:47.273Z,9.85
2023-01-02T14:39:49.978Z,9.73
2023-01-02T14:44:55.721Z,9.74
2023-01-02T14:50:00.781Z,9.78
2023-01-02T14:55:07.269Z,9.71
2023-01-02T15:00:19.725Z,9.69
2023-01-02T15:05:32.091Z,9.58
2023-01-02T15:10:35.183Z,9.50
2023-01-02T15:15:39.549Z,9.49
2023-01-02T15:20:43.947Z,9.50
2023-01-02T15:25:46.694Z,9.61
2023-01-02T15:30:59.235Z,9.52
2023-01-02T15:36:06.129Z,9.51
2023-01-02T15:41:09.262Z,9.42
2023-01-02T15:46:12.550Z,9.41
2023-01-02T15:51:18.536Z,9.45
2023-01-02T15:56:33.276Z,9.34
2023-01-02T16:01:45.512Z,9.33
2023-01-02T16:06:49.890Z,9.35
2023-01-02T16:11:54.880Z,9.31
2023-01-02T16:17:02.992Z,9.13
2023-01-02T16:22:14.859Z,9.16
2023-01-02T16:27:25.175Z,9.00
2023-01-02T16:32:29.628Z,9.05
2023-01-02T16:37:35.710Z,9.02
2023-01-02T16:42:40.908Z,8.97
2023-01-02T16:47:44.623Z,8.98
2023-01-02T16:52:48.737Z,8.99
2023-01-02T16:57:52.381Z,8.95
2023-01-02T17:02:55.291Z,8.89
2023-01-02T17:07:59.405Z,8.84
2023-01-02T17:13:02.476Z,8.90
2023-01-02T17:18:05.401Z,8.80
2023-01-02T17:23:09.931Z,8.75
2023-01-02T17:28:13.253Z,8.61
2023-01-02T17:33:16.524Z,8.60
2023-01-02T17:38:20.666Z,8.58
2023-01-02T17:43:23.345Z,8.62
2023-01-02T17:48:26.108Z,8.57
2023-01-02T17:53:30.165Z,8.58
2023-01-02T17:58:32.937Z,8.57
2023-01-02T18:03:35.640Z,8.64
2023-01-02T18:08:39.841Z,8.66
2023-01-02T18:13:44.535Z,8.67
2023-01-02T18:18:47.362Z,8.70
2023-01-02T18:23:55.624Z,8.72
2023-01-02T18:29:09.493Z,8.75
2023-01-02T18:34:46.443Z,8.68
2023-01-02T18:39:43.439Z,8.64
2023-01-02T18:44:46.572Z,8.66
2023-01-02T18:49:49.277Z,8.67
2023-01-02T18:55:01.078Z,8.60
2023-01-02T19:00:18.600Z,8.51
2023-01-02T19:05:24.939Z,8.27
2023-01-02T19:10:36.607Z,8.22
2023-01-02T19:15:43.576Z,8.13
2023-01-02T19:20:46.686Z,7.95
2023-01-02T19:25:51.346Z,7.89
2023-01-02T19:30:54.215Z,7.78
2023-01-02T19:35:58.728Z,7.83
2023-01-02T19:41:03.133Z,7.79
2023-01-02T19:46:06.091Z,7.73
2023-01-02T19:51:09.692Z,7.73
2023-01-02T19:56:14.953Z,7.75
2023-01-02T20:01:17.764Z,7.80
2023-01-02T20:06:20.524Z,7.75
2023-01-02T20:11:41.888Z,7.74
2023-01-02T20:16:44.630Z,7.82
2023-01-02T20:21:47.422Z,7.81
2023-01-02T20:26:51.542Z,7.82
2023-01-02T20:31:54.510Z,7.83
2023-01-02T20:36:57.905Z,7.90
2023-01-02T20:42:02.167Z,7.88
2023-01-02T20:47:04.948Z,7.85
2023-01-02T20:52:07.773Z,7.81
2023-01-02T20:57:11.875Z,7.78
2023-01-02T21:02:14.673Z,7.79
2023-01-02T21:07:17.452Z,7.80
2023-01-02T21:12:39.041Z,7.74
2023-01-02T21:17:41.885Z,7.79
2023-01-02T21:22:44.576Z,7.64
2023-01-02T21:27:48.734Z,7.54
2023-01-02T21:32:51.485Z,7.54
2023-01-02T21:37:54.220Z,7.47
2023-01-02T21:42:58.361Z,7.52
2023-01-02T21:48:01.209Z,7.51
2023-01-02T21:53:03.893Z,7.52
2023-01-02T21:58:15.403Z,7.50
2023-01-02T22:03:18.456Z,7.54
2023-01-02T22:08:21.250Z,7.57
2023-01-02T22:13:25.319Z,7.61
2023-01-02T22:18:29.595Z,7.58
2023-01-02T22:23:33.141Z,7.53
2023-01-02T22:28:37.652Z,7.47
2023-01-02T22:33:42.116Z,7.52
2023-01-02T22:39:17.529Z,7.52
2023-01-02T22:44:12.083Z,7.53
2023-01-02T22:49:15.504Z,7.50
2023-01-02T22:54:19.399Z,7.52
2023-01-02T22:59:24.703Z,7.42
2023-01-02T23:04:27.418Z,7.35
2023-01-02T23:09:30.149Z,7.27
2023-01-02T23:14:34.206Z,7.29
2023-01-02T23:19:36.942Z,7.32
2023-01-02T23:24:40.124Z,7.33
2023-01-02T23:29:44.465Z,7.40
2023-01-02T23:34:47.149Z,7.40
2023-01-02T23:39:49.836Z,7.32
2023-01-02T23:44:53.857Z,7.26
2023-01-02T23:49:56.557Z,7.16
2023-01-02T23:54:59.235Z,7.09
